Latest Coastal Weather Observations for Onslow Airport

IDW60701

Issued at 9:15 pm WST Thursday 30 October 2014 (issued every 10 minutes, with the page automatically refreshed every 10 minutes)

About coastal observations | Map of coastal stations | Coastal observations for WA | Marine services | Other Formats
Station Details ID: 005017 Name: ONSLOW AIRPORT Lat: -21.67 Lon: 115.11 Height: 10.5 m
Data from the previous 72 hours. | See also: Recent months at Onslow Airport
Date/Time
WST
Temp

°C
Wind Pressure Rain
since 9am
mm
Weather Cloud Vis
km
Sea
Height
m
Swell
Dir
 
Speed
knots
Gust
knots
hPa Trend Height
m
Period
s
Dir
30/09:00pm 25.7 SW 18 21 1012.4 - 0.0 - - - - - - -
30/08:30pm 26.8 SW 19 23 1012.2 - 0.0 - - - - - - -
30/08:21pm 27.2 SW 16 23 1012.1 - 0.0 - - - - - - -
30/08:00pm 27.2 WSW 11 13 1012.0 - 0.0 - - - - - - -
30/07:30pm 26.7 W 9 11 1011.6 - 0.0 - - - - - - -
30/07:00pm 27.8 W 10 14 1011.1 - 0.0 - - - - - - -
30/06:30pm 28.2 W 11 14 1010.7 - 0.0 - - - - - - -
30/06:00pm 29.2 W 12 16 1010.4 - 0.0 - - - - - - -
30/05:30pm 29.1 W 14 18 1010.2 - 0.0 - - - - - - -
30/05:00pm 28.8 W 17 21 1010.1 - 0.0 - - - - - - -
30/04:30pm 30.3 W 19 25 1009.8 - 0.0 - - - - - - -
30/04:00pm 31.3 W 19 25 1009.6 - 0.0 - - - - - - -
30/03:30pm 32.6 W 18 23 1009.6 - 0.0 - - - - - - -
30/03:00pm 33.4 W 19 24 1009.6 - 0.0 - - - - - - -
30/02:30pm 34.4 W 18 23 1009.6 - 0.0 - - - - - - -
30/02:00pm 33.0 W 19 25 1009.9 - 0.0 - - - - - - -
30/01:30pm 33.3 W 18 22 1010.2 - 0.0 - - - - - - -
30/01:00pm 32.8 W 17 21 1010.6 - 0.0 - - - - - - -
30/12:30pm 33.5 WNW 14 18 1010.8 - 0.0 - - - - - - -
30/12:00pm 36.8 SW 13 17 1011.2 - 0.0 - - - - - - -
30/11:30am 36.0 SW 13 16 1011.4 - 0.0 - - - - - - -
30/11:00am 34.6 SW 13 17 1011.7 - 0.0 - - - - - - -
30/10:30am 33.1 SW 12 15 1012.4 - 0.0 - - - - - - -
30/10:00am 31.8 SSW 11 14 1012.9 - 0.0 - - - - - - -
30/09:30am 30.6 SSW 9 14 1013.3 - 0.0 - - - - - - -
30/09:00am 28.8 SSW 11 14 1013.6 - 0.0 - - - - - - -
30/08:30am 27.0 SSW 10 13 1013.6 - 0.0 - - - - - - -
30/08:00am 25.5 SSW 11 13 1013.5 - 0.0 - - - - - - -
30/07:30am 23.9 SSW 11 14 1013.5 - 0.0 - - - - - - -
30/07:00am 22.7 SSW 11 14 1013.2 - 0.0 - - - - - - -
30/06:30am 21.7 SSW 10 13 1012.9 - 0.0 - - - - - - -
30/06:00am 21.0 SSW 10 12 1012.6 - 0.0 - - - - - - -
30/05:30am 21.1 SSW 10 13 1012.3 - 0.0 - - - - - - -
30/05:00am 21.3 SSW 11 13 1012.2 - 0.0 - - - - - - -
30/04:30am 21.6 SSW 11 14 1011.9 - 0.0 - - - - - - -
30/04:00am 21.9 SSW 10 13 1011.9 - 0.0 - - - - - - -
30/03:30am 22.1 SSW 11 14 1011.9 - 0.0 - - - - - - -
30/03:00am 22.3 SSW 11 13 1011.7 - 0.0 - - - - - - -
30/02:30am 22.5 SSW 10 13 1011.8 - 0.0 - - - - - - -
30/02:00am 22.7 SSW 10 13 1011.9 - 0.0 - - - - - - -
30/01:30am 23.0 SSW 11 14 1011.9 - 0.0 - - - - - - -
30/01:00am 23.2 SSW 14 18 1012.1 - 0.0 - - - - - - -
30/12:30am 23.4 SSW 14 17 1012.2 - 0.0 - - - - - - -
30/12:00am 23.7 SSW 13 16 1012.5 - 0.0 - - - - - - -
 
Date/Time
WST
Temp

°C
Wind Pressure Rain
since 9am
mm
Weather Cloud Vis
km
Sea
Height
m
Swell
Dir
 
Speed
knots
Gust
knots
hPa Trend Height
m
Period
s
Dir
29/11:30pm 23.9 SW 14 21 1012.7 - 0.0 - - - - - - -
29/11:00pm 24.1 SW 15 19 1012.7 - 0.0 - - - - - - -
29/10:30pm 24.4 SW 15 19 1012.9 - 0.0 - - - - - - -
29/10:00pm 25.0 SW 15 19 1013.0 - 0.0 - - - - - - -
29/09:30pm 25.7 SW 16 22 1012.8 - 0.0 - - - - - - -
29/09:00pm 26.6 SW 14 19 1012.7 - 0.0 - - - - - - -
29/08:30pm 25.8 WSW 9 11 1012.5 - 0.0 - - - - - - -
29/08:00pm 25.8 W 9 11 1012.3 - 0.0 - - - - - - -
29/07:30pm 25.9 W 9 11 1012.0 - 0.0 - - - - - - -
29/07:00pm 25.9 W 11 13 1011.6 - 0.0 - - - - - - -
29/06:30pm 26.6 W 13 15 1011.5 - 0.0 - - - - - - -
29/06:00pm 27.9 W 14 17 1011.3 - 0.0 - - - - - - -
29/05:30pm 28.3 W 14 18 1011.1 - 0.0 - - - - - - -
29/05:00pm 29.0 W 15 18 1011.2 - 0.0 - - - - - - -
29/04:30pm 29.6 W 15 19 1011.0 - 0.0 - - - - - - -
29/04:00pm 29.8 W 17 20 1011.0 - 0.0 - - - - - - -
29/03:30pm 30.6 W 18 23 1011.0 - 0.0 - - - - - - -
29/03:00pm 31.6 W 19 23 1011.1 - 0.0 - - - - - - -
29/02:30pm 31.9 W 20 24 1011.1 - 0.0 - - - - - - -
29/02:00pm 31.3 W 18 23 1011.3 - 0.0 - - - - - - -
29/01:30pm 31.0 WNW 16 19 1011.6 - 0.0 - - - - - - -
29/01:00pm 30.4 WNW 15 19 1012.1 - 0.0 - - - - - - -
29/12:30pm 31.7 WNW 14 17 1012.3 - 0.0 - - - - - - -
29/12:00pm 33.2 WNW 12 15 1012.6 - 0.0 - - - - - - -
29/11:30am 35.4 SW 7 10 1012.8 - 0.0 - - - - - - -
29/11:00am 33.2 SSW 9 12 1012.8 - 0.0 - - - - - - -
29/10:30am 31.2 SW 10 14 1013.2 - 0.0 - - - - - - -
29/10:00am 30.6 SSW 11 15 1013.4 - 0.0 - - - - - - -
29/09:30am 29.3 SSW 12 17 1013.5 - 0.0 - - - - - - -
29/09:00am 26.6 SSW 14 17 1013.6 - 0.0 - - - - - - -
29/08:30am 25.1 SSW 14 18 1013.6 - 0.0 - - - - - - -
29/08:00am 23.3 SSW 15 19 1013.5 - 0.0 - - - - - - -
29/07:30am 22.4 SSW 15 20 1013.7 - 0.0 - - - - - - -
29/07:00am 21.3 SW 14 19 1013.4 - 0.0 - - - - - - -
29/06:30am 20.6 SW 14 18 1013.2 - 0.0 - - - - - - -
29/06:00am 20.6 SW 13 16 1012.7 - 0.0 - - - - - - -
29/05:30am 20.7 SW 13 17 1012.5 - 0.0 - - - - - - -
29/05:00am 20.9 SW 12 16 1012.3 - 0.0 - - - - - - -
29/04:30am 21.1 SW 13 17 1012.0 - 0.0 - - - - - - -
29/04:00am 21.3 SW 15 18 1011.7 - 0.0 - - - - - - -
29/03:30am 21.4 SW 12 15 1011.7 - 0.0 - - - - - - -
29/03:00am 21.9 SW 10 13 1011.5 - 0.0 - - - - - - -
29/02:30am 22.2 SW 10 13 1011.2 - 0.0 - - - - - - -
29/02:00am 22.5 SSW 9 12 1011.2 - 0.0 - - - - - - -
29/01:30am 22.8 SSW 9 12 1011.4 - 0.0 - - - - - - -
29/01:00am 23.2 SSW 10 14 1011.5 - 0.0 - - - - - - -
29/12:30am 23.5 SW 11 14 1011.5 - 0.0 - - - - - - -
29/12:00am 23.8 SW 11 13 1011.6 - 0.0 - - - - - - -
 
Date/Time
WST
Temp

°C
Wind Pressure Rain
since 9am
mm
Weather Cloud Vis
km
Sea
Height
m
Swell
Dir
 
Speed
knots
Gust
knots
hPa Trend Height
m
Period
s
Dir
28/11:30pm 24.2 SW 11 14 1011.5 - 0.0 - - - - - - -
28/11:00pm 24.6 SW 12 16 1011.5 - 0.0 - - - - - - -
28/10:30pm 25.1 SW 12 15 1011.4 - 0.0 - - - - - - -
28/10:00pm 25.5 SW 14 18 1011.3 - 0.0 - - - - - - -
28/09:30pm 25.8 SW 15 19 1011.1 - 0.0 - - - - - - -
28/09:00pm 26.7 WSW 18 22 1010.7 - 0.0 - - - - - - -
28/08:30pm 28.5 SW 15 21 1010.4 - 0.0 - - - - - - -
28/08:00pm 30.0 SW 15 20 1010.1 - 0.0 - - - - - - -
28/07:30pm 28.2 W 10 13 1009.8 - 0.0 - - - - - - -
28/07:00pm 26.8 W 11 14 1009.4 - 0.0 - - - - - - -
28/06:30pm 27.3 W 12 15 1009.0 - 0.0 - - - - - - -
28/06:00pm 28.6 W 11 14 1008.6 - 0.0 - - - - - - -
28/05:30pm 30.0 W 12 16 1008.2 - 0.0 - - - - - - -
28/05:00pm 31.4 W 13 15 1008.1 - 0.0 - - - - - - -
28/04:30pm 32.4 W 13 16 1007.9 - 0.0 - - - - - - -
28/04:00pm 31.1 W 16 19 1008.0 - 0.0 - - - - - - -
28/03:30pm 32.4 W 16 20 1008.1 - 0.0 - - - - - - -
28/03:00pm 33.5 W 17 21 1008.3 - 0.0 - - - - - - -
28/02:30pm 35.0 W 16 22 1008.4 - 0.0 - - - - - - -
28/02:00pm 32.1 W 17 22 1008.8 - 0.0 - - - - - - -
28/01:30pm 31.5 WNW 18 21 1009.1 - 0.0 - - - - - - -
28/01:00pm 32.5 WNW 18 21 1009.3 - 0.0 - - - - - - -
28/12:30pm 33.6 WNW 15 18 1009.6 - 0.0 - - - - - - -
28/12:00pm 33.9 WNW 14 16 1010.0 - 0.0 - - - - - - -
28/11:30am 33.8 WNW 12 14 1010.2 - 0.0 - - - - - - -
28/11:00am 35.3 SSW 8 10 1010.5 - 0.0 - - - - - - -
28/10:30am 34.3 SSW 7 11 1010.8 - 0.0 - - - - - - -
28/10:00am 32.1 SSW 8 11 1011.1 - 0.0 - - - - - - -
28/09:30am 30.8 SSW 8 11 1011.2 - 0.0 - - - - - - -
28/09:00am 29.1 SSW 9 13 1011.2 - 0.0 - - - - - - -
28/08:30am 27.8 SSW 12 15 1010.9 - 0.0 - - - - - - -
28/08:00am 26.3 SSW 14 17 1010.9 - 0.0 - - - - - - -
28/07:30am 24.7 SSW 14 18 1010.6 - 0.0 - - - - - - -
28/07:00am 23.7 SSW 14 18 1010.4 - 0.0 - - - - - - -
28/06:30am 23.0 SSW 14 17 1010.1 - 0.0 - - - - - - -
28/06:00am 22.7 SSW 13 17 1009.9 - 0.0 - - - - - - -
28/05:30am 22.7 SSW 13 17 1009.6 - 0.0 - - - - - - -
28/05:00am 22.9 SW 13 17 1009.4 - 0.0 - - - - - - -
28/04:30am 23.1 SSW 11 13 1009.1 - 0.0 - - - - - - -
28/04:00am 23.4 SSW 12 15 1009.1 - 0.0 - - - - - - -
28/03:30am 23.5 SW 12 15 1009.1 - 0.0 - - - - - - -
28/03:00am 23.7 SW 12 15 1009.1 - 0.0 - - - - - - -
28/02:30am 23.8 SW 12 15 1009.4 - 0.0 - - - - - - -
28/02:00am 24.0 SW 11 14 1009.5 - 0.0 - - - - - - -
28/01:30am 24.3 SW 11 14 1009.8 - 0.0 - - - - - - -
28/01:00am 24.7 SW 12 15 1009.9 - 0.0 - - - - - - -
28/12:30am 25.0 SW 13 19 1010.1 - 0.0 - - - - - - -
28/12:00am 25.3 SW 14 19 1010.3 - 0.0 - - - - - - -
 
Date/Time
WST
Temp

°C
Wind Pressure Rain
since 9am
mm
Weather Cloud Vis
km
Sea
Height
m
Swell
Dir
 
Speed
knots
Gust
knots
hPa Trend Height
m
Period
s
Dir
27/11:30pm 25.8 SW 13 17 1010.6 - 0.0 - - - - - - -
27/11:00pm 26.3 SW 14 17 1010.9 - 0.0 - - - - - - -
27/10:30pm 26.7 SW 12 16 1011.0 - 0.0 - - - - - - -
27/10:00pm 27.5 SW 15 19 1010.9 - 0.0 - - - - - - -
27/09:30pm 28.0 SW 14 18 1010.9 - 0.0 - - - - - - -

Other Formats:

Comma delimited format used in spreadsheet applications
http://www.bom.gov.au/fwo/IDW60701/IDW60701.95305.axf

JavaScript Object Notation format (JSON) in row-major order
http://www.bom.gov.au/fwo/IDW60701/IDW60701.95305.json